sensor_id;sensor_type;location;lat;lon;timestamp;P1;durP1;ratioP1;P2;durP2;ratioP2
12429;SDS011;6279;42.192;24.326;2023-11-21T00:01:26;7.13;;;3.80;;
12429;SDS011;6279;42.192;24.326;2023-11-21T00:03:51;6.00;;;3.70;;
12429;SDS011;6279;42.192;24.326;2023-11-21T00:06:20;5.73;;;3.47;;
12429;SDS011;6279;42.192;24.326;2023-11-21T00:08:45;4.43;;;3.40;;
12429;SDS011;6279;42.192;24.326;2023-11-21T00:11:11;6.07;;;3.70;;
12429;SDS011;6279;42.192;24.326;2023-11-21T00:13:36;6.50;;;3.37;;
12429;SDS011;6279;42.192;24.326;2023-11-21T00:16:02;5.63;;;3.73;;
12429;SDS011;6279;42.192;24.326;2023-11-21T00:18:29;5.60;;;4.03;;
12429;SDS011;6279;42.192;24.326;2023-11-21T00:20:54;10.43;;;4.30;;
12429;SDS011;6279;42.192;24.326;2023-11-21T00:23:20;7.03;;;3.80;;
12429;SDS011;6279;42.192;24.326;2023-11-21T00:25:45;6.37;;;3.90;;
12429;SDS011;6279;42.192;24.326;2023-11-21T00:28:11;8.13;;;4.23;;
12429;SDS011;6279;42.192;24.326;2023-11-21T00:30:36;6.13;;;3.97;;
12429;SDS011;6279;42.192;24.326;2023-11-21T00:33:01;5.80;;;3.90;;
12429;SDS011;6279;42.192;24.326;2023-11-21T00:35:27;6.10;;;3.80;;
12429;SDS011;6279;42.192;24.326;2023-11-21T00:37:52;8.13;;;4.60;;
12429;SDS011;6279;42.192;24.326;2023-11-21T00:40:17;6.57;;;3.50;;
12429;SDS011;6279;42.192;24.326;2023-11-21T00:42:46;4.43;;;3.77;;
12429;SDS011;6279;42.192;24.326;2023-11-21T00:45:12;7.40;;;3.90;;
12429;SDS011;6279;42.192;24.326;2023-11-21T00:47:37;5.87;;;3.63;;
12429;SDS011;6279;42.192;24.326;2023-11-21T00:50:03;6.87;;;3.50;;
12429;SDS011;6279;42.192;24.326;2023-11-21T00:52:31;6.60;;;3.10;;
12429;SDS011;6279;42.192;24.326;2023-11-21T00:54:56;4.47;;;3.20;;
12429;SDS011;6279;42.192;24.326;2023-11-21T00:57:24;5.20;;;3.30;;
12429;SDS011;6279;42.192;24.326;2023-11-21T00:59:49;5.77;;;3.30;;
12429;SDS011;6279;42.192;24.326;2023-11-21T01:02:15;4.17;;;3.00;;
12429;SDS011;6279;42.192;24.326;2023-11-21T01:04:40;5.13;;;3.00;;
12429;SDS011;6279;42.192;24.326;2023-11-21T01:07:06;4.70;;;2.87;;
12429;SDS011;6279;42.192;24.326;2023-11-21T01:09:31;4.50;;;2.80;;
12429;SDS011;6279;42.192;24.326;2023-11-21T01:11:57;3.57;;;2.80;;
12429;SDS011;6279;42.192;24.326;2023-11-21T01:14:24;5.03;;;2.70;;
12429;SDS011;6279;42.192;24.326;2023-11-21T01:16:51;5.80;;;3.10;;
12429;SDS011;6279;42.192;24.326;2023-11-21T01:19:17;5.17;;;3.27;;
12429;SDS011;6279;42.192;24.326;2023-11-21T01:21:44;5.40;;;3.17;;
12429;SDS011;6279;42.192;24.326;2023-11-21T01:24:09;4.23;;;2.93;;
12429;SDS011;6279;42.192;24.326;2023-11-21T01:26:35;8.43;;;3.10;;
12429;SDS011;6279;42.192;24.326;2023-11-21T01:29:00;3.30;;;2.83;;
12429;SDS011;6279;42.192;24.326;2023-11-21T01:31:26;5.20;;;3.30;;
12429;SDS011;6279;42.192;24.326;2023-11-21T01:33:54;5.57;;;3.37;;
12429;SDS011;6279;42.192;24.326;2023-11-21T01:36:20;4.87;;;3.50;;
12429;SDS011;6279;42.192;24.326;2023-11-21T01:38:46;5.50;;;3.17;;
12429;SDS011;6279;42.192;24.326;2023-11-21T01:41:14;5.33;;;3.53;;
12429;SDS011;6279;42.192;24.326;2023-11-21T01:43:39;4.37;;;3.47;;
12429;SDS011;6279;42.192;24.326;2023-11-21T01:46:06;5.83;;;3.37;;
12429;SDS011;6279;42.192;24.326;2023-11-21T01:48:31;5.47;;;3.10;;
12429;SDS011;6279;42.192;24.326;2023-11-21T01:50:58;4.63;;;3.53;;
12429;SDS011;6279;42.192;24.326;2023-11-21T01:53:24;6.83;;;3.07;;
12429;SDS011;6279;42.192;24.326;2023-11-21T01:55:51;6.73;;;2.97;;
12429;SDS011;6279;42.192;24.326;2023-11-21T01:58:17;4.43;;;3.20;;
12429;SDS011;6279;42.192;24.326;2023-11-21T02:00:42;7.77;;;3.30;;
12429;SDS011;6279;42.192;24.326;2023-11-21T02:03:08;4.13;;;3.27;;
12429;SDS011;6279;42.192;24.326;2023-11-21T02:05:35;5.97;;;2.90;;
12429;SDS011;6279;42.192;24.326;2023-11-21T02:08:01;5.70;;;3.20;;
12429;SDS011;6279;42.192;24.326;2023-11-21T02:10:28;5.40;;;3.23;;
12429;SDS011;6279;42.192;24.326;2023-11-21T02:12:54;3.37;;;2.60;;
12429;SDS011;6279;42.192;24.326;2023-11-21T02:15:22;4.97;;;2.70;;
12429;SDS011;6279;42.192;24.326;2023-11-21T02:17:48;6.70;;;3.13;;
12429;SDS011;6279;42.192;24.326;2023-11-21T02:20:18;5.97;;;2.80;;
12429;SDS011;6279;42.192;24.326;2023-11-21T02:22:52;4.37;;;3.10;;
12429;SDS011;6279;42.192;24.326;2023-11-21T02:25:25;5.33;;;3.40;;
12429;SDS011;6279;42.192;24.326;2023-11-21T02:27:51;4.77;;;3.17;;
12429;SDS011;6279;42.192;24.326;2023-11-21T02:30:16;4.23;;;2.97;;
12429;SDS011;6279;42.192;24.326;2023-11-21T02:32:42;4.10;;;3.00;;
12429;SDS011;6279;42.192;24.326;2023-11-21T02:35:08;4.60;;;3.13;;
12429;SDS011;6279;42.192;24.326;2023-11-21T02:37:34;4.57;;;3.23;;
12429;SDS011;6279;42.192;24.326;2023-11-21T02:40:00;4.23;;;3.20;;
12429;SDS011;6279;42.192;24.326;2023-11-21T02:42:29;10.87;;;5.57;;
12429;SDS011;6279;42.192;24.326;2023-11-21T02:44:54;8.53;;;5.10;;
12429;SDS011;6279;42.192;24.326;2023-11-21T02:47:20;13.13;;;5.73;;
12429;SDS011;6279;42.192;24.326;2023-11-21T02:49:45;10.27;;;4.90;;
12429;SDS011;6279;42.192;24.326;2023-11-21T02:52:10;7.43;;;3.83;;
12429;SDS011;6279;42.192;24.326;2023-11-21T02:54:37;6.73;;;3.60;;
12429;SDS011;6279;42.192;24.326;2023-11-21T02:57:03;5.27;;;3.13;;
12429;SDS011;6279;42.192;24.326;2023-11-21T02:59:28;6.93;;;3.93;;
12429;SDS011;6279;42.192;24.326;2023-11-21T03:01:53;6.97;;;4.10;;
12429;SDS011;6279;42.192;24.326;2023-11-21T03:04:19;5.70;;;4.00;;
12429;SDS011;6279;42.192;24.326;2023-11-21T03:06:46;6.70;;;4.07;;
12429;SDS011;6279;42.192;24.326;2023-11-21T03:09:11;9.80;;;3.53;;
12429;SDS011;6279;42.192;24.326;2023-11-21T03:11:39;7.23;;;4.10;;
12429;SDS011;6279;42.192;24.326;2023-11-21T03:14:04;7.87;;;4.37;;
12429;SDS011;6279;42.192;24.326;2023-11-21T03:16:31;6.43;;;4.07;;
12429;SDS011;6279;42.192;24.326;2023-11-21T03:18:57;8.17;;;4.97;;
12429;SDS011;6279;42.192;24.326;2023-11-21T03:21:22;16.77;;;7.47;;
12429;SDS011;6279;42.192;24.326;2023-11-21T03:23:54;20.93;;;9.90;;
12429;SDS011;6279;42.192;24.326;2023-11-21T03:26:19;11.20;;;6.10;;
12429;SDS011;6279;42.192;24.326;2023-11-21T03:28:45;13.80;;;7.33;;
12429;SDS011;6279;42.192;24.326;2023-11-21T03:31:11;10.07;;;6.13;;
12429;SDS011;6279;42.192;24.326;2023-11-21T03:33:36;11.70;;;6.53;;
12429;SDS011;6279;42.192;24.326;2023-11-21T03:36:02;10.30;;;5.53;;
12429;SDS011;6279;42.192;24.326;2023-11-21T03:38:28;10.00;;;5.93;;
12429;SDS011;6279;42.192;24.326;2023-11-21T03:40:54;13.00;;;6.10;;
12429;SDS011;6279;42.192;24.326;2023-11-21T03:43:19;10.53;;;5.30;;
12429;SDS011;6279;42.192;24.326;2023-11-21T03:45:45;8.77;;;4.97;;
12429;SDS011;6279;42.192;24.326;2023-11-21T03:48:12;11.40;;;6.10;;
12429;SDS011;6279;42.192;24.326;2023-11-21T03:50:37;11.03;;;6.37;;
12429;SDS011;6279;42.192;24.326;2023-11-21T03:53:03;13.93;;;6.53;;
12429;SDS011;6279;42.192;24.326;2023-11-21T03:55:29;11.57;;;6.70;;
12429;SDS011;6279;42.192;24.326;2023-11-21T03:57:56;12.93;;;6.40;;
12429;SDS011;6279;42.192;24.326;2023-11-21T04:00:22;11.40;;;6.40;;
12429;SDS011;6279;42.192;24.326;2023-11-21T04:02:49;9.17;;;5.23;;
12429;SDS011;6279;42.192;24.326;2023-11-21T04:05:16;9.53;;;4.80;;
12429;SDS011;6279;42.192;24.326;2023-11-21T04:07:42;9.40;;;4.60;;
12429;SDS011;6279;42.192;24.326;2023-11-21T04:10:08;9.23;;;4.63;;
12429;SDS011;6279;42.192;24.326;2023-11-21T04:12:37;8.13;;;4.50;;
12429;SDS011;6279;42.192;24.326;2023-11-21T04:15:03;4.87;;;3.63;;
12429;SDS011;6279;42.192;24.326;2023-11-21T04:17:28;8.47;;;4.47;;
12429;SDS011;6279;42.192;24.326;2023-11-21T04:19:54;7.60;;;3.80;;
12429;SDS011;6279;42.192;24.326;2023-11-21T04:22:19;6.47;;;3.60;;
12429;SDS011;6279;42.192;24.326;2023-11-21T04:24:45;6.33;;;3.63;;
12429;SDS011;6279;42.192;24.326;2023-11-21T04:27:11;6.30;;;3.60;;
12429;SDS011;6279;42.192;24.326;2023-11-21T04:29:36;9.63;;;3.43;;
12429;SDS011;6279;42.192;24.326;2023-11-21T04:32:01;5.10;;;3.80;;
12429;SDS011;6279;42.192;24.326;2023-11-21T04:34:27;5.27;;;3.63;;
12429;SDS011;6279;42.192;24.326;2023-11-21T04:36:55;8.23;;;4.23;;
12429;SDS011;6279;42.192;24.326;2023-11-21T04:39:21;6.57;;;3.83;;
12429;SDS011;6279;42.192;24.326;2023-11-21T04:41:46;5.30;;;3.67;;
12429;SDS011;6279;42.192;24.326;2023-11-21T04:44:12;6.20;;;4.07;;
12429;SDS011;6279;42.192;24.326;2023-11-21T04:46:37;6.73;;;5.60;;
12429;SDS011;6279;42.192;24.326;2023-11-21T04:49:03;7.83;;;5.23;;
12429;SDS011;6279;42.192;24.326;2023-11-21T04:51:28;10.87;;;7.87;;
12429;SDS011;6279;42.192;24.326;2023-11-21T04:53:58;7.93;;;5.93;;
12429;SDS011;6279;42.192;24.326;2023-11-21T04:56:24;7.23;;;5.60;;
12429;SDS011;6279;42.192;24.326;2023-11-21T04:58:49;7.77;;;4.43;;
12429;SDS011;6279;42.192;24.326;2023-11-21T05:01:15;8.73;;;4.90;;
12429;SDS011;6279;42.192;24.326;2023-11-21T05:03:40;6.57;;;4.30;;
12429;SDS011;6279;42.192;24.326;2023-11-21T05:06:06;6.37;;;4.87;;
12429;SDS011;6279;42.192;24.326;2023-11-21T05:08:34;8.57;;;5.93;;
12429;SDS011;6279;42.192;24.326;2023-11-21T05:11:02;10.93;;;6.00;;
12429;SDS011;6279;42.192;24.326;2023-11-21T05:13:27;9.90;;;5.80;;
12429;SDS011;6279;42.192;24.326;2023-11-21T05:15:56;10.87;;;6.50;;
12429;SDS011;6279;42.192;24.326;2023-11-21T05:18:24;8.90;;;5.90;;
12429;SDS011;6279;42.192;24.326;2023-11-21T05:20:54;9.10;;;6.10;;
12429;SDS011;6279;42.192;24.326;2023-11-21T05:23:21;8.23;;;5.00;;
12429;SDS011;6279;42.192;24.326;2023-11-21T05:25:47;5.73;;;4.83;;
12429;SDS011;6279;42.192;24.326;2023-11-21T05:28:12;7.10;;;5.17;;
12429;SDS011;6279;42.192;24.326;2023-11-21T05:30:38;7.73;;;4.63;;
12429;SDS011;6279;42.192;24.326;2023-11-21T05:33:04;11.13;;;4.90;;
12429;SDS011;6279;42.192;24.326;2023-11-21T05:35:30;9.83;;;5.20;;
12429;SDS011;6279;42.192;24.326;2023-11-21T05:37:56;13.77;;;4.93;;
12429;SDS011;6279;42.192;24.326;2023-11-21T05:40:21;12.47;;;6.20;;
12429;SDS011;6279;42.192;24.326;2023-11-21T05:42:47;27.60;;;10.57;;
12429;SDS011;6279;42.192;24.326;2023-11-21T05:45:17;19.83;;;9.63;;
12429;SDS011;6279;42.192;24.326;2023-11-21T05:47:44;13.20;;;7.23;;
12429;SDS011;6279;42.192;24.326;2023-11-21T05:50:11;11.03;;;5.30;;
12429;SDS011;6279;42.192;24.326;2023-11-21T05:52:40;8.07;;;4.80;;
12429;SDS011;6279;42.192;24.326;2023-11-21T05:55:06;10.53;;;4.83;;
12429;SDS011;6279;42.192;24.326;2023-11-21T05:57:33;11.20;;;5.40;;
12429;SDS011;6279;42.192;24.326;2023-11-21T06:00:01;10.37;;;4.93;;
12429;SDS011;6279;42.192;24.326;2023-11-21T06:02:28;12.70;;;5.43;;
12429;SDS011;6279;42.192;24.326;2023-11-21T06:04:53;12.07;;;4.93;;
12429;SDS011;6279;42.192;24.326;2023-11-21T06:07:19;8.70;;;3.90;;
12429;SDS011;6279;42.192;24.326;2023-11-21T06:09:44;10.03;;;4.03;;
12429;SDS011;6279;42.192;24.326;2023-11-21T06:12:09;7.27;;;3.90;;
12429;SDS011;6279;42.192;24.326;2023-11-21T06:14:35;8.80;;;4.03;;
12429;SDS011;6279;42.192;24.326;2023-11-21T06:17:01;8.40;;;4.03;;
12429;SDS011;6279;42.192;24.326;2023-11-21T06:19:27;6.20;;;3.70;;
12429;SDS011;6279;42.192;24.326;2023-11-21T06:21:52;5.10;;;3.37;;
12429;SDS011;6279;42.192;24.326;2023-11-21T06:24:18;4.83;;;3.73;;
12429;SDS011;6279;42.192;24.326;2023-11-21T06:26:43;14.90;;;4.50;;
12429;SDS011;6279;42.192;24.326;2023-11-21T06:29:09;10.63;;;4.80;;
12429;SDS011;6279;42.192;24.326;2023-11-21T06:31:36;7.43;;;4.37;;
12429;SDS011;6279;42.192;24.326;2023-11-21T06:34:01;6.13;;;4.43;;
12429;SDS011;6279;42.192;24.326;2023-11-21T06:36:28;10.10;;;5.40;;
12429;SDS011;6279;42.192;24.326;2023-11-21T06:38:53;9.77;;;5.87;;
12429;SDS011;6279;42.192;24.326;2023-11-21T06:41:20;22.40;;;9.70;;
12429;SDS011;6279;42.192;24.326;2023-11-21T06:43:46;15.53;;;8.43;;
12429;SDS011;6279;42.192;24.326;2023-11-21T06:46:13;15.97;;;8.13;;
12429;SDS011;6279;42.192;24.326;2023-11-21T06:48:44;10.90;;;6.13;;
12429;SDS011;6279;42.192;24.326;2023-11-21T06:51:10;11.07;;;6.40;;
12429;SDS011;6279;42.192;24.326;2023-11-21T06:53:36;12.53;;;6.90;;
12429;SDS011;6279;42.192;24.326;2023-11-21T06:56:02;19.17;;;7.90;;
12429;SDS011;6279;42.192;24.326;2023-11-21T06:58:27;11.97;;;7.17;;
12429;SDS011;6279;42.192;24.326;2023-11-21T07:00:53;15.10;;;8.50;;
12429;SDS011;6279;42.192;24.326;2023-11-21T07:03:18;11.97;;;6.37;;
12429;SDS011;6279;42.192;24.326;2023-11-21T07:05:46;8.17;;;5.73;;
12429;SDS011;6279;42.192;24.326;2023-11-21T07:08:12;12.13;;;6.33;;
12429;SDS011;6279;42.192;24.326;2023-11-21T07:10:38;13.37;;;6.67;;
12429;SDS011;6279;42.192;24.326;2023-11-21T07:13:04;12.10;;;7.47;;
12429;SDS011;6279;42.192;24.326;2023-11-21T07:15:29;12.10;;;7.07;;
12429;SDS011;6279;42.192;24.326;2023-11-21T07:17:55;14.30;;;6.77;;
12429;SDS011;6279;42.192;24.326;2023-11-21T07:20:20;9.83;;;6.83;;
12429;SDS011;6279;42.192;24.326;2023-11-21T07:22:46;12.87;;;8.40;;
12429;SDS011;6279;42.192;24.326;2023-11-21T07:25:11;14.83;;;8.90;;
12429;SDS011;6279;42.192;24.326;2023-11-21T07:27:37;14.20;;;8.93;;
12429;SDS011;6279;42.192;24.326;2023-11-21T07:30:02;21.10;;;11.53;;
12429;SDS011;6279;42.192;24.326;2023-11-21T07:32:30;14.43;;;10.17;;
12429;SDS011;6279;42.192;24.326;2023-11-21T07:34:56;15.23;;;9.50;;
12429;SDS011;6279;42.192;24.326;2023-11-21T07:37:23;16.30;;;10.30;;
12429;SDS011;6279;42.192;24.326;2023-11-21T07:39:48;16.80;;;10.53;;
12429;SDS011;6279;42.192;24.326;2023-11-21T07:42:14;18.10;;;11.33;;
12429;SDS011;6279;42.192;24.326;2023-11-21T07:44:39;15.93;;;10.70;;
12429;SDS011;6279;42.192;24.326;2023-11-21T07:47:04;14.37;;;10.10;;
12429;SDS011;6279;42.192;24.326;2023-11-21T07:49:30;9.77;;;7.53;;
12429;SDS011;6279;42.192;24.326;2023-11-21T07:51:55;8.90;;;6.83;;
12429;SDS011;6279;42.192;24.326;2023-11-21T07:54:21;7.93;;;6.30;;
12429;SDS011;6279;42.192;24.326;2023-11-21T07:56:46;11.17;;;6.83;;
12429;SDS011;6279;42.192;24.326;2023-11-21T07:59:12;9.50;;;6.50;;
12429;SDS011;6279;42.192;24.326;2023-11-21T08:01:39;9.63;;;6.37;;
12429;SDS011;6279;42.192;24.326;2023-11-21T08:04:05;9.77;;;5.50;;
12429;SDS011;6279;42.192;24.326;2023-11-21T08:06:31;5.30;;;4.27;;
12429;SDS011;6279;42.192;24.326;2023-11-21T08:08:57;6.67;;;4.60;;
12429;SDS011;6279;42.192;24.326;2023-11-21T08:11:23;12.13;;;5.00;;
12429;SDS011;6279;42.192;24.326;2023-11-21T08:13:49;11.97;;;4.20;;
12429;SDS011;6279;42.192;24.326;2023-11-21T08:16:14;11.83;;;8.27;;
12429;SDS011;6279;42.192;24.326;2023-11-21T08:18:41;11.67;;;5.00;;
12429;SDS011;6279;42.192;24.326;2023-11-21T08:21:06;5.60;;;4.03;;
12429;SDS011;6279;42.192;24.326;2023-11-21T08:23:33;9.23;;;4.53;;
12429;SDS011;6279;42.192;24.326;2023-11-21T08:25:59;9.87;;;4.90;;
12429;SDS011;6279;42.192;24.326;2023-11-21T08:28:24;6.73;;;4.40;;
12429;SDS011;6279;42.192;24.326;2023-11-21T08:30:51;5.40;;;4.00;;
12429;SDS011;6279;42.192;24.326;2023-11-21T08:33:17;9.43;;;4.90;;
12429;SDS011;6279;42.192;24.326;2023-11-21T08:35:43;11.77;;;7.33;;
12429;SDS011;6279;42.192;24.326;2023-11-21T08:38:09;10.77;;;4.90;;
12429;SDS011;6279;42.192;24.326;2023-11-21T08:40:35;12.10;;;5.27;;
12429;SDS011;6279;42.192;24.326;2023-11-21T08:43:01;12.30;;;5.37;;
12429;SDS011;6279;42.192;24.326;2023-11-21T08:45:29;11.67;;;5.80;;
12429;SDS011;6279;42.192;24.326;2023-11-21T08:47:55;11.17;;;5.53;;
12429;SDS011;6279;42.192;24.326;2023-11-21T08:50:21;6.30;;;4.17;;
12429;SDS011;6279;42.192;24.326;2023-11-21T08:52:47;8.30;;;5.20;;
12429;SDS011;6279;42.192;24.326;2023-11-21T08:55:14;6.67;;;5.07;;
12429;SDS011;6279;42.192;24.326;2023-11-21T08:57:40;7.63;;;5.70;;
12429;SDS011;6279;42.192;24.326;2023-11-21T09:00:09;6.37;;;5.20;;
12429;SDS011;6279;42.192;24.326;2023-11-21T09:02:37;8.57;;;5.33;;
12429;SDS011;6279;42.192;24.326;2023-11-21T09:05:07;8.73;;;4.57;;
12429;SDS011;6279;42.192;24.326;2023-11-21T09:07:34;7.60;;;4.00;;
12429;SDS011;6279;42.192;24.326;2023-11-21T09:09:59;10.10;;;6.80;;
12429;SDS011;6279;42.192;24.326;2023-11-21T09:12:25;9.83;;;5.80;;
12429;SDS011;6279;42.192;24.326;2023-11-21T09:14:50;11.63;;;6.27;;
12429;SDS011;6279;42.192;24.326;2023-11-21T09:17:16;8.70;;;6.80;;
12429;SDS011;6279;42.192;24.326;2023-11-21T09:19:42;8.50;;;5.93;;
12429;SDS011;6279;42.192;24.326;2023-11-21T09:22:10;10.70;;;4.70;;
12429;SDS011;6279;42.192;24.326;2023-11-21T09:24:36;7.70;;;4.77;;
12429;SDS011;6279;42.192;24.326;2023-11-21T09:27:02;5.87;;;4.50;;
12429;SDS011;6279;42.192;24.326;2023-11-21T09:29:28;8.80;;;4.90;;
12429;SDS011;6279;42.192;24.326;2023-11-21T09:31:54;5.37;;;3.93;;
12429;SDS011;6279;42.192;24.326;2023-11-21T09:34:20;6.10;;;4.00;;
12429;SDS011;6279;42.192;24.326;2023-11-21T09:36:48;5.97;;;3.90;;
12429;SDS011;6279;42.192;24.326;2023-11-21T09:39:14;5.00;;;3.50;;
12429;SDS011;6279;42.192;24.326;2023-11-21T09:41:43;9.17;;;3.97;;
12429;SDS011;6279;42.192;24.326;2023-11-21T09:44:14;5.87;;;5.03;;
12429;SDS011;6279;42.192;24.326;2023-11-21T09:46:43;4.63;;;3.80;;
12429;SDS011;6279;42.192;24.326;2023-11-21T09:49:13;3.87;;;3.50;;
12429;SDS011;6279;42.192;24.326;2023-11-21T09:51:39;3.13;;;2.57;;
12429;SDS011;6279;42.192;24.326;2023-11-21T09:54:08;4.07;;;2.60;;
12429;SDS011;6279;42.192;24.326;2023-11-21T09:56:36;5.73;;;2.90;;
12429;SDS011;6279;42.192;24.326;2023-11-21T09:59:03;5.73;;;2.93;;
12429;SDS011;6279;42.192;24.326;2023-11-21T10:01:32;4.03;;;3.10;;
12429;SDS011;6279;42.192;24.326;2023-11-21T10:04:00;7.90;;;3.70;;
12429;SDS011;6279;42.192;24.326;2023-11-21T10:06:25;4.90;;;3.07;;
12429;SDS011;6279;42.192;24.326;2023-11-21T10:08:52;5.73;;;3.57;;
12429;SDS011;6279;42.192;24.326;2023-11-21T10:11:18;4.43;;;3.20;;
12429;SDS011;6279;42.192;24.326;2023-11-21T10:13:45;6.50;;;3.43;;
12429;SDS011;6279;42.192;24.326;2023-11-21T10:16:13;7.90;;;3.03;;
12429;SDS011;6279;42.192;24.326;2023-11-21T10:18:43;7.60;;;4.67;;
12429;SDS011;6279;42.192;24.326;2023-11-21T10:21:11;7.23;;;3.97;;
12429;SDS011;6279;42.192;24.326;2023-11-21T10:23:36;5.10;;;3.30;;
12429;SDS011;6279;42.192;24.326;2023-11-21T10:26:02;5.47;;;3.87;;
12429;SDS011;6279;42.192;24.326;2023-11-21T10:28:28;7.37;;;4.50;;
12429;SDS011;6279;42.192;24.326;2023-11-21T10:30:54;2.37;;;1.93;;
12429;SDS011;6279;42.192;24.326;2023-11-21T10:33:27;3.00;;;2.17;;
12429;SDS011;6279;42.192;24.326;2023-11-21T10:35:53;2.77;;;1.90;;
12429;SDS011;6279;42.192;24.326;2023-11-21T10:38:20;1.90;;;1.63;;
12429;SDS011;6279;42.192;24.326;2023-11-21T10:40:48;2.33;;;1.47;;
12429;SDS011;6279;42.192;24.326;2023-11-21T10:43:15;3.20;;;1.87;;
12429;SDS011;6279;42.192;24.326;2023-11-21T10:45:41;2.50;;;2.30;;
12429;SDS011;6279;42.192;24.326;2023-11-21T10:48:12;3.07;;;2.33;;
12429;SDS011;6279;42.192;24.326;2023-11-21T10:50:42;3.67;;;2.33;;
12429;SDS011;6279;42.192;24.326;2023-11-21T10:53:09;6.10;;;3.27;;
12429;SDS011;6279;42.192;24.326;2023-11-21T10:55:36;7.97;;;4.70;;
12429;SDS011;6279;42.192;24.326;2023-11-21T10:58:02;5.67;;;3.43;;
12429;SDS011;6279;42.192;24.326;2023-11-21T11:00:30;9.90;;;4.97;;
12429;SDS011;6279;42.192;24.326;2023-11-21T11:02:56;6.50;;;4.00;;
12429;SDS011;6279;42.192;24.326;2023-11-21T11:05:23;4.20;;;2.67;;
12429;SDS011;6279;42.192;24.326;2023-11-21T11:07:59;6.63;;;3.37;;
12429;SDS011;6279;42.192;24.326;2023-11-21T11:10:29;7.43;;;3.20;;
12429;SDS011;6279;42.192;24.326;2023-11-21T11:12:55;9.67;;;4.10;;
12429;SDS011;6279;42.192;24.326;2023-11-21T11:15:22;8.43;;;3.53;;
12429;SDS011;6279;42.192;24.326;2023-11-21T11:17:48;7.10;;;3.13;;
12429;SDS011;6279;42.192;24.326;2023-11-21T11:20:15;8.00;;;4.03;;
12429;SDS011;6279;42.192;24.326;2023-11-21T11:33:39;7.27;;;3.87;;
12429;SDS011;6279;42.192;24.326;2023-11-21T11:38:51;5.90;;;4.20;;
12429;SDS011;6279;42.192;24.326;2023-11-21T11:41:27;8.83;;;4.30;;
12429;SDS011;6279;42.192;24.326;2023-11-21T11:43:55;6.80;;;4.40;;
12429;SDS011;6279;42.192;24.326;2023-11-21T11:46:22;5.70;;;3.90;;
12429;SDS011;6279;42.192;24.326;2023-11-21T11:49:06;5.10;;;4.03;;
12429;SDS011;6279;42.192;24.326;2023-11-21T11:51:33;9.50;;;4.63;;
12429;SDS011;6279;42.192;24.326;2023-11-21T11:54:01;7.33;;;5.07;;
12429;SDS011;6279;42.192;24.326;2023-11-21T11:56:33;6.20;;;3.93;;
12429;SDS011;6279;42.192;24.326;2023-11-21T11:59:04;9.00;;;5.03;;
12429;SDS011;6279;42.192;24.326;2023-11-21T12:01:32;8.67;;;5.00;;
12429;SDS011;6279;42.192;24.326;2023-11-21T12:07:02;11.90;;;4.83;;
12429;SDS011;6279;42.192;24.326;2023-11-21T12:09:28;7.27;;;5.20;;
12429;SDS011;6279;42.192;24.326;2023-11-21T12:11:55;9.10;;;4.97;;
12429;SDS011;6279;42.192;24.326;2023-11-21T12:14:23;7.00;;;4.93;;
12429;SDS011;6279;42.192;24.326;2023-11-21T12:16:50;9.83;;;4.97;;
12429;SDS011;6279;42.192;24.326;2023-11-21T12:19:16;9.37;;;5.33;;
12429;SDS011;6279;42.192;24.326;2023-11-21T12:21:42;8.17;;;5.17;;
12429;SDS011;6279;42.192;24.326;2023-11-21T12:24:09;7.57;;;4.83;;
12429;SDS011;6279;42.192;24.326;2023-11-21T12:26:35;5.20;;;4.13;;
12429;SDS011;6279;42.192;24.326;2023-11-21T12:29:03;7.13;;;4.17;;
12429;SDS011;6279;42.192;24.326;2023-11-21T12:31:29;6.37;;;4.53;;
12429;SDS011;6279;42.192;24.326;2023-11-21T12:33:55;8.63;;;4.73;;
12429;SDS011;6279;42.192;24.326;2023-11-21T12:36:22;7.27;;;4.60;;
12429;SDS011;6279;42.192;24.326;2023-11-21T12:38:48;7.73;;;4.80;;
12429;SDS011;6279;42.192;24.326;2023-11-21T12:41:14;8.53;;;5.17;;
12429;SDS011;6279;42.192;24.326;2023-11-21T12:43:42;13.30;;;5.43;;
12429;SDS011;6279;42.192;24.326;2023-11-21T12:46:09;8.40;;;5.13;;
12429;SDS011;6279;42.192;24.326;2023-11-21T12:48:38;8.07;;;4.77;;
12429;SDS011;6279;42.192;24.326;2023-11-21T12:51:13;8.50;;;4.80;;
12429;SDS011;6279;42.192;24.326;2023-11-21T12:53:43;11.53;;;5.70;;
12429;SDS011;6279;42.192;24.326;2023-11-21T12:56:09;9.37;;;6.57;;
12429;SDS011;6279;42.192;24.326;2023-11-21T12:58:39;9.80;;;6.40;;
12429;SDS011;6279;42.192;24.326;2023-11-21T13:01:09;9.93;;;6.70;;
12429;SDS011;6279;42.192;24.326;2023-11-21T13:03:37;8.63;;;6.20;;
12429;SDS011;6279;42.192;24.326;2023-11-21T13:06:04;12.37;;;6.37;;
12429;SDS011;6279;42.192;24.326;2023-11-21T13:08:32;9.17;;;5.30;;
12429;SDS011;6279;42.192;24.326;2023-11-21T13:10:58;7.50;;;5.73;;
12429;SDS011;6279;42.192;24.326;2023-11-21T13:13:24;10.17;;;5.87;;
12429;SDS011;6279;42.192;24.326;2023-11-21T13:18:22;10.03;;;5.30;;
12429;SDS011;6279;42.192;24.326;2023-11-21T13:20:57;11.87;;;6.50;;
12429;SDS011;6279;42.192;24.326;2023-11-21T13:23:24;10.17;;;5.90;;
12429;SDS011;6279;42.192;24.326;2023-11-21T13:25:50;11.00;;;6.33;;
12429;SDS011;6279;42.192;24.326;2023-11-21T13:28:17;9.77;;;6.60;;
12429;SDS011;6279;42.192;24.326;2023-11-21T13:30:46;12.77;;;6.27;;
12429;SDS011;6279;42.192;24.326;2023-11-21T13:33:13;10.93;;;6.00;;
12429;SDS011;6279;42.192;24.326;2023-11-21T13:35:43;9.30;;;5.00;;
12429;SDS011;6279;42.192;24.326;2023-11-21T13:38:14;9.67;;;5.60;;
12429;SDS011;6279;42.192;24.326;2023-11-21T13:40:42;7.73;;;4.53;;
12429;SDS011;6279;42.192;24.326;2023-11-21T13:43:14;8.33;;;4.90;;
12429;SDS011;6279;42.192;24.326;2023-11-21T13:45:47;7.60;;;4.93;;
12429;SDS011;6279;42.192;24.326;2023-11-21T13:48:23;6.30;;;4.70;;
12429;SDS011;6279;42.192;24.326;2023-11-21T13:50:56;8.00;;;4.90;;
12429;SDS011;6279;42.192;24.326;2023-11-21T13:53:33;5.37;;;4.20;;
12429;SDS011;6279;42.192;24.326;2023-11-21T13:56:01;8.50;;;5.53;;
12429;SDS011;6279;42.192;24.326;2023-11-21T13:58:26;13.83;;;5.90;;
12429;SDS011;6279;42.192;24.326;2023-11-21T14:01:15;11.23;;;6.20;;
12429;SDS011;6279;42.192;24.326;2023-11-21T14:03:50;10.83;;;5.30;;
12429;SDS011;6279;42.192;24.326;2023-11-21T14:06:22;7.57;;;4.70;;
12429;SDS011;6279;42.192;24.326;2023-11-21T14:08:53;6.60;;;5.23;;
12429;SDS011;6279;42.192;24.326;2023-11-21T14:11:21;8.83;;;5.40;;
12429;SDS011;6279;42.192;24.326;2023-11-21T14:13:47;6.47;;;4.77;;
12429;SDS011;6279;42.192;24.326;2023-11-21T14:16:13;9.33;;;4.90;;
12429;SDS011;6279;42.192;24.326;2023-11-21T14:18:39;6.60;;;4.70;;
12429;SDS011;6279;42.192;24.326;2023-11-21T14:21:17;9.03;;;4.93;;
12429;SDS011;6279;42.192;24.326;2023-11-21T14:23:43;10.53;;;5.13;;
12429;SDS011;6279;42.192;24.326;2023-11-21T14:26:10;11.73;;;6.57;;
12429;SDS011;6279;42.192;24.326;2023-11-21T14:28:38;12.70;;;6.33;;
12429;SDS011;6279;42.192;24.326;2023-11-21T14:31:04;12.20;;;6.40;;
12429;SDS011;6279;42.192;24.326;2023-11-21T14:33:29;10.70;;;6.63;;
12429;SDS011;6279;42.192;24.326;2023-11-21T14:35:55;9.37;;;5.60;;
12429;SDS011;6279;42.192;24.326;2023-11-21T14:38:22;7.60;;;5.10;;
12429;SDS011;6279;42.192;24.326;2023-11-21T14:40:48;15.33;;;6.10;;
12429;SDS011;6279;42.192;24.326;2023-11-21T14:43:14;9.17;;;5.53;;
12429;SDS011;6279;42.192;24.326;2023-11-21T14:45:40;11.37;;;6.47;;
12429;SDS011;6279;42.192;24.326;2023-11-21T14:48:06;11.83;;;6.27;;
12429;SDS011;6279;42.192;24.326;2023-11-21T14:50:33;11.63;;;6.67;;
12429;SDS011;6279;42.192;24.326;2023-11-21T14:53:02;16.40;;;7.73;;
12429;SDS011;6279;42.192;24.326;2023-11-21T14:55:31;15.80;;;6.73;;
12429;SDS011;6279;42.192;24.326;2023-11-21T14:58:15;23.77;;;7.57;;
12429;SDS011;6279;42.192;24.326;2023-11-21T15:00:45;14.23;;;7.93;;